Time;durP1;ratioP1;P1;durP2;ratioP2;P2;SDS_P1;SDS_P2;PMS_P1;PMS_P2;Temp;Humidity;BMP_temperature;BMP_pressure;BME280_temperature;BME280_humidity;BME280_pressure;Samples;Min_cycle;Max_cycle;Signal;HPM_P1;HPM_P2
2023/02/09 00:01:20;;;;;;;62.40;26.60;;;;;;;-4.02;59.87;101853.09;5091217;28;20458;-70
2023/02/09 00:03:46;;;;;;;57.85;24.50;;;;;;;-4.24;60.19;101852.84;5111526;28;20111;-70
2023/02/09 00:06:14;;;;;;;55.15;26.50;;;;;;;-4.05;60.23;101858.88;5091983;28;20103;-70
2023/02/09 00:08:40;;;;;;;56.97;26.05;;;;;;;-4.43;59.46;101858.72;5069610;28;20012;-70
2023/02/09 00:11:07;;;;;;;54.58;26.02;;;;;;;-4.16;60.22;101865.63;5078393;28;20409;-70
2023/02/09 00:13:34;;;;;;;69.28;27.45;;;;;;;-4.37;59.51;101861.59;5090700;28;20035;-70
2023/02/09 00:16:01;;;;;;;60.83;26.10;;;;;;;-4.54;60.38;101876.38;5089415;28;20025;-70
2023/02/09 00:18:28;;;;;;;58.80;25.25;;;;;;;-4.70;61.07;101877.25;5090649;28;20028;-70
2023/02/09 00:21:00;;;;;;;54.13;22.85;;;;;;;-5.01;61.77;101865.19;5088544;28;20036;-70
2023/02/09 00:23:28;;;;;;;44.05;18.85;;;;;;;-5.23;61.80;101855.84;5089535;28;20031;-70
2023/02/09 00:25:53;;;;;;;42.65;19.23;;;;;;;-5.50;63.33;101866.91;5090660;28;20081;-70
2023/02/09 00:28:19;;;;;;;40.63;18.92;;;;;;;-5.56;63.52;101862.13;5090871;28;20131;-70
2023/02/09 00:30:45;;;;;;;37.30;17.13;;;;;;;-5.68;64.03;101856.16;5089439;28;20443;-71
2023/02/09 00:33:10;;;;;;;35.28;16.45;;;;;;;-5.72;64.51;101853.91;5090483;28;20039;-70
2023/02/09 00:35:42;;;;;;;31.33;16.20;;;;;;;-5.67;64.16;101849.66;5090403;28;20019;-70
2023/02/09 00:38:09;;;;;;;40.33;19.42;;;;;;;-6.01;64.98;101852.53;5089386;28;20047;-70
2023/02/09 00:40:37;;;;;;;34.38;15.52;;;;;;;-6.00;65.01;101848.75;5090615;28;20024;-70
2023/02/09 00:43:03;;;;;;;36.00;16.58;;;;;;;-5.62;64.78;101857.34;5089953;28;20024;-70
2023/02/09 00:45:29;;;;;;;35.72;16.30;;;;;;;-5.40;63.50;101855.81;5100712;28;20112;-70
2023/02/09 00:47:55;;;;;;;33.00;15.77;;;;;;;-5.69;63.62;101862.63;5091818;28;20027;-70
2023/02/09 00:50:20;;;;;;;33.38;15.75;;;;;;;-5.93;64.39;101856.09;5093924;28;20044;-70
2023/02/09 00:52:46;;;;;;;34.85;15.30;;;;;;;-6.20;65.60;101840.91;5093376;28;20047;-70
2023/02/09 00:55:11;;;;;;;33.78;16.40;;;;;;;-5.98;65.30;101853.00;5100058;28;20493;-71
2023/02/09 00:57:37;;;;;;;40.28;16.45;;;;;;;-5.81;65.41;101847.59;5091257;28;20442;-70
2023/02/09 01:00:06;;;;;;;37.92;17.40;;;;;;;-5.80;64.97;101852.88;5094087;28;20027;-70
2023/02/09 01:02:32;;;;;;;36.97;16.30;;;;;;;-5.82;64.58;101851.34;5106152;28;20084;-70
2023/02/09 01:04:58;;;;;;;36.90;16.20;;;;;;;-5.89;64.37;101851.19;5098321;28;20060;-70
2023/02/09 01:07:24;;;;;;;46.67;20.33;;;;;;;-5.82;64.43;101857.66;5094083;28;20153;-70
2023/02/09 01:09:49;;;;;;;52.28;20.40;;;;;;;-6.03;65.32;101847.25;5094050;28;20020;-70
2023/02/09 01:12:15;;;;;;;44.75;18.35;;;;;;;-6.07;65.56;101833.09;5092578;28;20024;-70
2023/02/09 01:14:41;;;;;;;46.05;19.77;;;;;;;-6.09;65.62;101834.31;5087169;28;20028;-70
2023/02/09 01:17:07;;;;;;;41.70;17.90;;;;;;;-6.10;65.73;101832.56;5098131;28;20043;-70
2023/02/09 01:19:33;;;;;;;51.05;20.92;;;;;;;-6.08;64.64;101834.13;5093682;28;20409;-70
2023/02/09 01:21:58;;;;;;;70.22;24.45;;;;;;;-6.29;65.48;101820.09;5091514;28;20104;-70
2023/02/09 01:24:24;;;;;;;45.17;18.73;;;;;;;-6.21;65.17;101822.84;5093445;28;20028;-70
2023/02/09 01:26:49;;;;;;;38.10;17.00;;;;;;;-6.37;66.11;101820.91;5091718;28;20032;-70
2023/02/09 01:29:17;;;;;;;28.00;13.88;;;;;;;-6.15;65.32;101824.06;5093170;28;20028;-71
2023/02/09 01:31:43;;;;;;;33.60;14.50;;;;;;;-6.43;66.12;101833.31;5093424;28;20383;-70
2023/02/09 01:34:11;;;;;;;31.27;14.40;;;;;;;-6.31;65.71;101827.56;5091956;28;20058;-70
2023/02/09 01:36:36;;;;;;;27.67;14.90;;;;;;;-6.13;65.29;101822.88;5091744;28;20420;-70
2023/02/09 01:39:03;;;;;;;32.90;14.52;;;;;;;-5.89;64.92;101828.50;5093192;28;20093;-70
2023/02/09 01:41:31;;;;;;;31.27;13.85;;;;;;;-5.98;64.97;101822.19;5097206;28;20036;-70
2023/02/09 01:44:01;;;;;;;28.10;14.02;;;;;;;-6.17;65.52;101813.31;5093148;28;20051;-70
2023/02/09 01:46:31;;;;;;;31.88;14.82;;;;;;;-6.04;65.32;101809.25;5091785;28;20052;-70
2023/02/09 01:49:14;;;;;;;32.47;15.25;;;;;;;-6.00;65.18;101816.06;5091676;28;20044;-70
2023/02/09 01:51:59;;;;;;;37.55;16.02;;;;;;;-5.82;65.16;101818.66;5093048;28;20501;-70
2023/02/09 01:54:33;;;;;;;38.30;16.02;;;;;;;-5.65;64.92;101809.44;5090639;28;20383;-70
2023/02/09 01:57:09;;;;;;;42.00;17.70;;;;;;;-5.82;64.42;101815.91;5105313;28;20102;-70
2023/02/09 01:59:38;;;;;;;30.83;14.98;;;;;;;-5.73;65.15;101817.63;5091645;28;20093;-70
2023/02/09 02:02:05;;;;;;;32.72;15.45;;;;;;;-5.66;64.86;101818.66;5093033;28;20460;-70
2023/02/09 02:04:32;;;;;;;35.88;15.25;;;;;;;-5.73;64.40;101817.63;5088449;28;20031;-70
2023/02/09 02:07:09;;;;;;;33.05;15.80;;;;;;;-5.74;63.69;101815.06;5091691;28;20498;-70
2023/02/09 02:09:35;;;;;;;33.63;17.13;;;;;;;-5.65;64.00;101827.69;5091452;28;20035;-70
2023/02/09 02:12:01;;;;;;;39.58;17.00;;;;;;;-5.97;64.29;101818.44;5091156;28;20024;-70
2023/02/09 02:14:36;;;;;;;40.03;17.90;;;;;;;-5.82;64.24;101824.94;5091764;28;20415;-70
2023/02/09 02:17:18;;;;;;;48.30;19.25;;;;;;;-6.13;64.61;101820.16;5082664;28;20039;-70
2023/02/09 02:19:44;;;;;;;46.35;18.92;;;;;;;-5.88;63.93;101824.75;5092484;28;20501;-70
2023/02/09 02:22:28;;;;;;;44.83;20.55;;;;;;;-5.87;63.96;101821.88;5092493;28;20111;-70
2023/02/09 02:25:11;;;;;;;39.00;17.20;;;;;;;-5.86;63.91;101820.84;5091458;28;20062;-70
2023/02/09 02:27:58;;;;;;;37.60;17.60;;;;;;;-5.86;63.58;101823.56;5092374;28;20111;-70
2023/02/09 02:30:57;;;;;;;40.15;15.18;;;;;;;-5.93;64.17;101815.22;5090880;28;20035;-70
2023/02/09 02:33:25;;;;;;;29.52;14.32;;;;;;;-6.32;65.00;101814.97;5075146;28;20034;-70
2023/02/09 02:36:15;;;;;;;32.22;15.25;;;;;;;-6.39;65.88;101817.50;5089722;28;20062;-70
2023/02/09 02:38:48;;;;;;;41.25;19.98;;;;;;;-6.78;67.02;101807.97;5090658;28;20123;-70
2023/02/09 02:41:22;;;;;;;50.10;21.02;;;;;;;-7.01;67.93;101803.06;5090820;28;20051;-70
2023/02/09 02:44:00;;;;;;;53.45;20.45;;;;;;;-7.00;67.88;101799.34;5092011;28;20097;-70
2023/02/09 02:46:42;;;;;;;70.68;25.77;;;;;;;-6.89;68.58;101797.38;5091148;28;20034;-70
2023/02/09 02:49:20;;;;;;;49.20;19.27;;;;;;;-6.78;68.14;101797.94;5091683;28;20564;-70
2023/02/09 02:51:50;;;;;;;40.70;17.48;;;;;;;-6.76;68.21;101795.03;5091969;28;20028;-70
2023/02/09 02:54:24;;;;;;;37.38;16.15;;;;;;;-6.81;68.56;101797.41;5091866;28;20489;-70
2023/02/09 02:56:55;;;;;;;40.28;16.60;;;;;;;-6.69;68.71;101798.84;5089565;28;20028;-69
2023/02/09 02:59:25;;;;;;;41.13;17.77;;;;;;;-6.69;68.20;101785.22;5091667;28;20075;-70
2023/02/09 03:02:09;;;;;;;42.97;17.75;;;;;;;-6.74;67.96;101784.88;5090365;28;20030;-70
2023/02/09 03:04:37;;;;;;;57.10;20.83;;;;;;;-6.93;68.85;101789.53;5090799;28;20020;-70
2023/02/09 03:07:07;;;;;;;45.60;19.67;;;;;;;-7.15;69.29;101785.50;5094204;28;20040;-70
2023/02/09 03:09:33;;;;;;;38.78;18.50;;;;;;;-7.16;69.69;101793.81;5091343;28;20054;-69
2023/02/09 03:12:24;;;;;;;40.03;20.80;;;;;;;-7.53;71.03;101777.59;5090946;28;20028;-69
2023/02/09 03:14:55;;;;;;;41.35;21.83;;;;;;;-7.51;71.21;101783.72;5089230;28;20028;-70
2023/02/09 03:17:39;;;;;;;43.38;19.00;;;;;;;-7.62;71.34;101781.25;5091577;28;20401;-69
2023/02/09 03:20:14;;;;;;;44.05;19.55;;;;;;;-7.75;71.22;101779.78;5091520;28;20028;-70
2023/02/09 03:22:49;;;;;;;38.38;17.83;;;;;;;-7.69;71.65;101777.47;5091200;28;20028;-70
2023/02/09 03:25:21;;;;;;;41.42;17.98;;;;;;;-7.42;71.17;101791.94;5090547;28;20024;-70
2023/02/09 03:28:23;;;;;;;38.53;17.65;;;;;;;-7.46;69.99;101777.81;5091128;28;20119;-69
2023/02/09 03:30:51;;;;;;;42.65;18.02;;;;;;;-7.81;71.67;101766.84;5091098;28;20028;-70
2023/02/09 03:33:27;;;;;;;41.70;17.23;;;;;;;-7.79;71.87;101775.69;5090130;28;20028;-70
2023/02/09 03:35:56;;;;;;;40.08;17.88;;;;;;;-7.80;72.39;101778.53;5088938;28;20013;-70
2023/02/09 03:38:22;;;;;;;37.20;18.80;;;;;;;-7.63;71.92;101763.22;5091315;28;20113;-70
2023/02/09 03:40:47;;;;;;;47.92;19.85;;;;;;;-7.60;72.13;101765.66;5089629;28;20024;-69
2023/02/09 03:43:12;;;;;;;71.38;25.02;;;;;;;-7.42;71.57;101759.31;5089616;28;20024;-69
2023/02/09 03:45:38;;;;;;;71.50;26.58;;;;;;;-7.37;70.84;101768.69;5094966;28;20525;-70
2023/02/09 03:48:04;;;;;;;50.83;20.38;;;;;;;-7.23;70.91;101770.00;5091300;28;20027;-70
2023/02/09 03:50:31;;;;;;;39.10;17.92;;;;;;;-7.13;70.01;101767.16;5089123;28;20043;-70
2023/02/09 03:52:57;;;;;;;48.50;21.45;;;;;;;-7.23;70.53;101767.25;5086128;28;20028;-69
2023/02/09 03:55:22;;;;;;;35.55;19.25;;;;;;;-7.11;69.53;101765.09;5088068;28;20024;-70
2023/02/09 03:57:48;;;;;;;46.13;20.85;;;;;;;-7.41;69.96;101769.16;5098097;28;20103;-69
2023/02/09 04:00:14;;;;;;;43.63;19.75;;;;;;;-7.47;70.36;101755.22;5090962;28;20027;-69
2023/02/09 04:02:39;;;;;;;62.38;25.38;;;;;;;-7.42;70.33;101762.91;5089424;28;20028;-69
2023/02/09 04:05:05;;;;;;;80.15;30.67;;;;;;;-7.69;71.29;101753.84;5088510;28;20020;-69
2023/02/09 04:07:31;;;;;;;111.90;38.05;;;;;;;-7.71;70.86;101769.47;5086411;28;20023;-69
2023/02/09 04:09:56;;;;;;;117.38;36.40;;;;;;;-7.55;71.05;101765.16;5090576;28;20035;-70
2023/02/09 04:12:22;;;;;;;96.95;35.00;;;;;;;-7.51;70.81;101764.69;5089153;28;20035;-69
2023/02/09 04:14:47;;;;;;;129.60;42.40;;;;;;;-7.66;71.05;101755.41;5089001;28;20482;-70
2023/02/09 04:17:13;;;;;;;131.55;44.25;;;;;;;-7.78;71.15;101752.94;5093364;28;20024;-69
2023/02/09 04:19:38;;;;;;;114.75;45.28;;;;;;;-7.94;71.97;101758.22;5111470;28;20084;-69
2023/02/09 04:22:04;;;;;;;139.98;58.05;;;;;;;-8.00;71.48;101759.72;5094630;28;20406;-70
2023/02/09 04:24:29;;;;;;;149.95;57.90;;;;;;;-7.93;71.72;101762.66;5093252;28;20050;-69
2023/02/09 04:26:55;;;;;;;138.65;54.05;;;;;;;-7.82;72.14;101769.69;5093675;28;20034;-69
2023/02/09 04:29:20;;;;;;;114.45;43.72;;;;;;;-7.90;71.44;101756.91;5094588;28;20028;-70
2023/02/09 04:31:46;;;;;;;80.22;31.52;;;;;;;-7.78;72.01;101761.09;5094539;28;20035;-69
2023/02/09 04:34:11;;;;;;;66.38;28.10;;;;;;;-7.88;71.88;101765.75;5094414;28;20092;-69
2023/02/09 04:36:37;;;;;;;70.65;30.15;;;;;;;-7.91;72.47;101761.47;5093164;28;20074;-69
2023/02/09 04:39:03;;;;;;;69.35;29.77;;;;;;;-8.02;72.96;101766.31;5093145;28;20089;-69
2023/02/09 04:41:29;;;;;;;62.05;28.58;;;;;;;-8.07;73.49;101764.91;5092569;28;20119;-69
2023/02/09 04:43:54;;;;;;;58.20;27.73;;;;;;;-8.08;73.16;101774.06;5094266;28;20098;-69
2023/02/09 04:46:19;;;;;;;49.53;24.35;;;;;;;-8.04;73.41;101775.47;5093090;28;20047;-69
2023/02/09 04:48:45;;;;;;;46.50;22.65;;;;;;;-7.92;72.99;101767.06;5094017;28;20056;-69
2023/02/09 04:51:10;;;;;;;47.50;20.00;;;;;;;-7.91;72.91;101766.91;5094130;28;20023;-69
2023/02/09 04:53:36;;;;;;;48.10;22.15;;;;;;;-8.04;72.63;101763.72;5092849;28;20052;-69
2023/02/09 04:56:05;;;;;;;51.50;25.52;;;;;;;-8.02;72.99;101766.31;5102034;28;20031;-69
2023/02/09 05:01:19;;;;;;;52.45;21.70;;;;;;;-8.28;73.94;101783.38;5093868;28;20089;-69
2023/02/09 05:03:45;;;;;;;47.92;22.02;;;;;;;-8.36;74.04;101782.25;5094214;28;20160;-69
2023/02/09 05:06:10;;;;;;;59.22;24.30;;;;;;;-8.52;74.31;101780.25;5085836;28;20028;-69
2023/02/09 05:08:36;;;;;;;60.85;22.92;;;;;;;-8.49;73.73;101784.47;5080168;28;20039;-69
2023/02/09 05:11:04;;;;;;;55.58;21.63;;;;;;;-8.51;74.20;101795.50;5091399;28;20567;-69
2023/02/09 05:13:30;;;;;;;49.40;18.08;;;;;;;-8.52;74.36;101792.97;5092313;28;20055;-69
2023/02/09 05:15:55;;;;;;;44.05;20.48;;;;;;;-8.48;74.30;101803.34;5092649;28;20503;-69
2023/02/09 05:18:22;;;;;;;55.58;22.48;;;;;;;-8.48;75.05;101800.63;5093890;28;20053;-69
2023/02/09 05:20:49;;;;;;;71.80;26.90;;;;;;;-8.47;74.50;101794.19;5093463;28;20023;-69
2023/02/09 05:23:15;;;;;;;76.43;24.60;;;;;;;-8.44;74.80;101794.91;5092093;28;20032;-69
2023/02/09 05:25:41;;;;;;;57.92;24.92;;;;;;;-8.45;74.95;101799.44;5091246;28;20031;-69
2023/02/09 05:28:06;;;;;;;49.90;22.05;;;;;;;-8.34;74.90;101795.69;5093427;28;20401;-69
2023/02/09 05:30:33;;;;;;;55.50;23.15;;;;;;;-8.36;74.48;101795.00;5091788;28;20118;-69
2023/02/09 05:32:59;;;;;;;65.75;24.98;;;;;;;-8.38;73.90;101791.59;5093145;28;20042;-69
2023/02/09 05:35:24;;;;;;;57.92;24.67;;;;;;;-8.34;74.57;101798.41;5090334;28;20619;-69
2023/02/09 05:37:50;;;;;;;78.25;33.50;;;;;;;-8.05;73.72;101800.94;5093252;28;20024;-69
2023/02/09 05:40:16;;;;;;;64.68;30.88;;;;;;;-7.90;72.55;101805.81;5091559;28;20486;-69
2023/02/09 05:42:41;;;;;;;61.50;27.13;;;;;;;-7.95;71.52;101808.16;5086595;28;20052;-69
2023/02/09 05:45:08;;;;;;;49.22;26.42;;;;;;;-8.27;72.99;101806.78;5092153;28;20027;-69
2023/02/09 05:47:33;;;;;;;60.17;23.48;;;;;;;-8.24;73.83;101807.34;5092712;28;20028;-69
2023/02/09 05:49:59;;;;;;;107.75;44.38;;;;;;;-8.43;74.05;101816.47;5088115;28;20819;-69
2023/02/09 05:52:24;;;;;;;81.70;39.85;;;;;;;-8.38;74.43;101816.03;5088400;28;20028;-71
2023/02/09 05:54:50;;;;;;;92.78;32.05;;;;;;;-8.29;74.27;101806.94;5091133;28;20559;-71
2023/02/09 05:57:16;;;;;;;71.45;29.92;;;;;;;-8.19;73.96;101812.31;5092669;28;20035;-69
2023/02/09 05:59:42;;;;;;;85.00;38.00;;;;;;;-8.22;74.22;101807.19;5096170;28;20509;-70
2023/02/09 06:02:08;;;;;;;82.10;36.03;;;;;;;-8.15;74.80;101800.13;5090018;28;20024;-69
2023/02/09 06:04:34;;;;;;;94.95;38.33;;;;;;;-7.81;73.93;101815.75;5088599;28;20058;-70
2023/02/09 06:06:59;;;;;;;65.47;32.20;;;;;;;-7.73;73.04;101811.38;5086100;28;20412;-71
2023/02/09 06:09:25;;;;;;;69.53;30.13;;;;;;;-7.67;72.90;101813.50;5084456;28;20038;-71
2023/02/09 06:11:50;;;;;;;88.82;36.20;;;;;;;-7.41;72.84;101809.97;5089280;28;20081;-71
2023/02/09 06:14:16;;;;;;;84.53;38.58;;;;;;;-7.21;71.98;101813.34;5088553;28;20038;-71
2023/02/09 06:16:43;;;;;;;96.82;43.63;;;;;;;-7.11;71.76;101802.38;5092412;28;20032;-70
2023/02/09 06:19:12;;;;;;;88.22;39.42;;;;;;;-7.10;71.37;101801.34;5087878;28;20036;-70
2023/02/09 06:21:38;;;;;;;100.40;44.70;;;;;;;-7.53;72.62;101799.34;5078445;28;20032;-71
2023/02/09 06:24:03;;;;;;;110.47;44.38;;;;;;;-7.34;73.06;101797.44;5087541;28;20042;-71
2023/02/09 06:26:29;;;;;;;80.82;35.78;;;;;;;-7.24;73.21;101798.19;5080319;28;20028;-71
2023/02/09 06:28:54;;;;;;;85.82;34.13;;;;;;;-7.22;73.97;101798.03;5078240;28;20031;-71
2023/02/09 06:31:20;;;;;;;93.47;37.95;;;;;;;-7.04;73.46;101800.69;5078111;28;20410;-70
2023/02/09 06:33:45;;;;;;;90.38;33.53;;;;;;;-6.97;72.79;101799.03;5079885;28;20531;-70
2023/02/09 06:36:11;;;;;;;71.85;31.00;;;;;;;-7.06;73.16;101794.56;5078180;28;20031;-70
2023/02/09 06:38:37;;;;;;;70.00;33.42;;;;;;;-7.06;74.03;101806.31;5088946;28;20051;-72
2023/02/09 06:41:03;;;;;;;67.88;29.63;;;;;;;-7.07;74.48;101809.19;5086084;28;20430;-71
2023/02/09 06:43:28;;;;;;;65.28;28.90;;;;;;;-6.86;74.32;101802.50;5088317;28;20028;-74
2023/02/09 06:45:55;;;;;;;111.78;43.80;;;;;;;-6.79;73.52;101809.84;5086645;28;20032;-72
2023/02/09 06:48:21;;;;;;;113.85;45.88;;;;;;;-6.84;73.71;101803.19;5089815;28;20103;-73
2023/02/09 06:50:46;;;;;;;132.00;48.85;;;;;;;-6.81;74.28;101801.00;5087926;28;20123;-73
2023/02/09 06:53:12;;;;;;;165.55;54.28;;;;;;;-6.51;73.74;101806.91;5083785;28;20020;-72
2023/02/09 06:55:37;;;;;;;145.98;55.15;;;;;;;-6.55;73.75;101801.94;5093162;28;20034;-71
2023/02/09 06:58:03;;;;;;;109.05;41.53;;;;;;;-6.31;72.68;101795.75;5084855;28;20024;-71
2023/02/09 07:00:30;;;;;;;59.25;28.23;;;;;;;-6.15;70.49;101800.41;5088532;28;20024;-70
2023/02/09 07:02:56;;;;;;;68.70;28.30;;;;;;;-6.02;70.46;101801.78;5091410;28;20042;-73
2023/02/09 07:05:22;;;;;;;101.50;41.55;;;;;;;-5.83;70.29;101804.16;5085975;28;20043;-73
2023/02/09 07:07:47;;;;;;;79.00;36.28;;;;;;;-5.89;70.17;101802.09;5087555;28;20032;-71
2023/02/09 07:10:15;;;;;;;97.75;41.30;;;;;;;-5.89;69.90;101802.09;5089029;28;20493;-73
2023/02/09 07:12:42;;;;;;;80.30;37.10;;;;;;;-5.59;69.02;101802.44;5086145;28;20032;-71
2023/02/09 07:15:08;;;;;;;80.45;33.78;;;;;;;-5.43;68.62;101798.00;5089983;28;20027;-71
2023/02/09 07:17:34;;;;;;;51.28;25.67;;;;;;;-5.12;67.55;101805.50;5098044;28;20035;-69
2023/02/09 07:19:59;;;;;;;59.33;26.45;;;;;;;-5.11;66.66;101810.78;5105515;28;20400;-70
2023/02/09 07:22:25;;;;;;;45.30;22.17;;;;;;;-4.71;64.85;101799.91;5084044;28;20031;-71
2023/02/09 07:24:51;;;;;;;49.83;23.90;;;;;;;-4.79;63.60;101813.63;5087460;28;20034;-68
2023/02/09 07:27:17;;;;;;;56.58;24.40;;;;;;;-4.89;65.21;101807.50;5094760;28;20027;-70
2023/02/09 07:29:42;;;;;;;49.15;22.17;;;;;;;-4.57;63.92;101808.44;5102663;28;20027;-71
2023/02/09 07:32:08;;;;;;;38.65;18.67;;;;;;;-4.68;63.00;101802.31;5091526;28;20470;-69
2023/02/09 07:34:34;;;;;;;60.72;28.42;;;;;;;-4.53;63.28;101799.66;5086159;28;20028;-70
2023/02/09 07:37:00;;;;;;;51.60;21.58;;;;;;;-4.47;62.32;101791.81;5085526;28;20032;-70
2023/02/09 07:39:25;;;;;;;44.92;21.48;;;;;;;-4.22;61.23;101792.53;5086148;28;20607;-71
2023/02/09 07:41:51;;;;;;;43.45;19.58;;;;;;;-4.20;61.03;101801.41;5084851;28;20028;-72
2023/02/09 07:44:16;;;;;;;43.42;19.52;;;;;;;-4.51;61.45;101797.63;5087541;28;20036;-73
2023/02/09 07:46:42;;;;;;;41.90;19.40;;;;;;;-4.33;62.09;101784.75;5086206;28;20044;-72
2023/02/09 07:49:08;;;;;;;53.22;23.08;;;;;;;-4.33;62.61;101796.50;5088175;28;20459;-72
2023/02/09 07:51:33;;;;;;;39.40;18.75;;;;;;;-4.18;61.33;101779.34;5084496;28;20490;-74
2023/02/09 07:53:59;;;;;;;65.65;26.05;;;;;;;-4.08;61.33;101782.72;5084738;28;20036;-72
2023/02/09 07:56:25;;;;;;;37.92;19.05;;;;;;;-4.49;61.62;101791.13;5090217;28;20163;-71
2023/02/09 07:58:52;;;;;;;50.80;24.60;;;;;;;-4.39;62.54;101784.41;5089545;28;20059;-72
2023/02/09 08:01:18;;;;;;;44.42;20.17;;;;;;;-4.34;63.40;101785.75;5110547;28;20093;-72
2023/02/09 08:03:46;;;;;;;39.03;18.23;;;;;;;-4.28;62.28;101783.19;5111312;28;20031;-70
2023/02/09 08:06:21;;;;;;;40.67;20.52;;;;;;;-4.17;62.30;101790.13;5093301;28;20292;-70
2023/02/09 08:08:48;;;;;;;38.22;17.92;;;;;;;-3.76;61.55;101790.84;5101260;28;20031;-74
2023/02/09 08:11:18;;;;;;;41.10;18.40;;;;;;;-3.93;61.72;101790.13;5108348;28;20078;-70
2023/02/09 08:13:44;;;;;;;42.90;20.33;;;;;;;-3.64;62.21;101778.44;5112776;28;20492;-74
2023/02/09 08:16:14;;;;;;;36.15;18.25;;;;;;;-3.79;61.00;101792.09;5092171;28;20067;-72
2023/02/09 08:18:46;;;;;;;35.33;17.63;;;;;;;-3.79;60.88;101783.91;5092296;28;20192;-73
2023/02/09 08:21:14;;;;;;;37.13;19.58;;;;;;;-3.38;60.65;101788.16;5090920;28;20036;-72
2023/02/09 08:23:42;;;;;;;33.78;16.58;;;;;;;-3.21;59.83;101783.38;5090910;28;20382;-74
2023/02/09 08:26:10;;;;;;;31.45;15.52;;;;;;;-3.22;59.21;101778.09;5083850;28;20024;-78
2023/02/09 08:28:37;;;;;;;27.55;15.55;;;;;;;-3.26;59.59;101783.97;5109115;28;20417;-76
2023/02/09 08:31:03;;;;;;;36.33;16.85;;;;;;;-3.22;58.53;101786.31;5111803;27;20027;-72
2023/02/09 08:33:28;;;;;;;35.17;17.75;;;;;;;-2.80;58.11;101779.34;5111797;28;20054;-72
2023/02/09 08:35:54;;;;;;;34.75;18.10;;;;;;;-2.82;57.14;101775.94;5099430;27;20028;-73
2023/02/09 08:38:20;;;;;;;37.97;16.25;;;;;;;-2.71;56.83;101772.72;5090001;28;20498;-75
2023/02/09 08:40:46;;;;;;;34.17;16.35;;;;;;;-2.41;56.74;101774.59;5096935;28;20486;-73
2023/02/09 08:43:12;;;;;;;33.63;17.00;;;;;;;-2.07;55.68;101772.22;5092893;28;20051;-73
2023/02/09 08:45:40;;;;;;;38.10;18.65;;;;;;;-1.78;54.32;101776.75;5098833;28;20032;-73
2023/02/09 08:48:08;;;;;;;30.38;16.52;;;;;;;-2.13;54.51;101771.13;5113370;28;20032;-73
2023/02/09 08:50:34;;;;;;;35.92;16.48;;;;;;;-1.77;54.48;101772.97;5114600;28;20048;-72
2023/02/09 08:53:01;;;;;;;44.95;24.13;;;;;;;-1.29;53.85;101774.22;5114558;28;20107;-75
2023/02/09 08:55:28;;;;;;;38.05;19.33;;;;;;;-0.99;52.34;101769.38;5105946;28;20024;-75
2023/02/09 08:57:53;;;;;;;33.88;18.65;;;;;;;-0.92;51.83;101763.09;5114360;28;20054;-74
2023/02/09 09:00:19;;;;;;;28.70;16.02;;;;;;;-1.10;52.22;101760.84;5109627;28;20059;-73
2023/02/09 09:02:45;;;;;;;34.60;17.05;;;;;;;-0.79;50.55;101765.06;5100728;28;20039;-74
2023/02/09 09:05:10;;;;;;;34.35;16.98;;;;;;;-1.04;50.81;101755.41;5105610;27;20032;-73
2023/02/09 09:07:36;;;;;;;33.42;16.20;;;;;;;-1.11;50.24;101767.41;5106710;28;20097;-74
2023/02/09 09:10:02;;;;;;;26.63;14.65;;;;;;;-0.92;50.51;101744.69;5091186;28;20036;-75
2023/02/09 09:12:37;;;;;;;32.17;16.90;;;;;;;-1.46;52.17;101735.22;5075397;28;20024;-75
2023/02/09 09:15:04;;;;;;;29.02;16.55;;;;;;;-1.21;51.62;101743.00;5075283;28;20118;-74
2023/02/09 09:17:29;;;;;;;30.92;15.93;;;;;;;-0.73;49.90;101750.50;5095366;28;20059;-71
2023/02/09 09:19:55;;;;;;;50.83;20.75;;;;;;;-0.17;49.16;101743.97;5092049;28;20474;-74
2023/02/09 09:22:24;;;;;;;27.38;15.23;;;;;;;-0.71;50.85;101738.28;5058946;28;20167;-77
2023/02/09 09:24:51;;;;;;;26.15;15.27;;;;;;;-0.43;49.94;101736.47;5098668;28;20098;-76
2023/02/09 09:27:17;;;;;;;39.65;23.73;;;;;;;0.07;48.64;101735.34;5093963;28;20092;-75
2023/02/09 09:29:42;;;;;;;31.92;15.25;;;;;;;0.35;48.04;101726.88;5108965;28;20039;-74
2023/02/09 09:32:12;;;;;;;28.27;15.95;;;;;;;0.73;46.31;101724.56;5090956;28;20027;-71
2023/02/09 09:34:39;;;;;;;22.42;13.40;;;;;;;0.92;45.59;101725.59;5101415;28;20027;-76
2023/02/09 09:37:04;;;;;;;23.88;11.95;;;;;;;1.17;45.14;101711.94;5091662;28;20493;-75
2023/02/09 09:39:30;;;;;;;27.20;14.40;;;;;;;1.58;43.32;101720.91;5086722;28;20115;-72
2023/02/09 09:41:59;;;;;;;22.73;12.93;;;;;;;1.92;43.46;101717.97;5080287;28;20097;-71
2023/02/09 09:44:39;;;;;;;45.07;19.37;;;;;;;1.38;43.31;101709.97;5086173;28;20413;-74
2023/02/09 09:47:08;;;;;;;29.48;14.02;;;;;;;1.08;43.03;101703.06;5104913;28;20452;-73
2023/02/09 09:49:36;;;;;;;20.85;11.40;;;;;;;0.95;43.11;101711.38;5090440;28;20096;-73
2023/02/09 09:52:12;;;;;;;19.35;10.88;;;;;;;0.18;44.07;101706.34;5091950;28;20401;-74
2023/02/09 09:54:39;;;;;;;23.88;11.38;;;;;;;0.94;43.33;101690.41;5092904;28;20402;-72
2023/02/09 09:57:18;;;;;;;18.77;10.40;;;;;;;1.03;42.60;101691.00;5089335;28;20035;-72
2023/02/09 09:59:44;;;;;;;17.73;10.10;;;;;;;1.15;42.69;101683.75;5085634;28;20036;-74
2023/02/09 10:02:27;;;;;;;26.42;13.43;;;;;;;1.40;41.96;101685.78;5070912;28;20513;-71
2023/02/09 10:05:01;;;;;;;21.65;12.02;;;;;;;1.26;42.62;101679.47;5081081;28;20060;-74
2023/02/09 10:07:31;;;;;;;21.30;11.32;;;;;;;1.93;41.40;101686.53;5104703;28;20036;-75
2023/02/09 10:10:03;;;;;;;19.95;11.30;;;;;;;2.13;40.91;101678.13;5114163;28;20409;-76
2023/02/09 10:12:37;;;;;;;19.08;9.52;;;;;;;1.98;40.56;101678.44;5095722;28;20430;-75
2023/02/09 10:15:26;;;;;;;18.80;9.93;;;;;;;1.99;40.38;101674.63;5097977;28;20092;-74
2023/02/09 10:17:51;;;;;;;15.77;9.85;;;;;;;2.08;40.71;101669.66;5108418;28;20451;-77
2023/02/09 10:20:17;;;;;;;20.65;9.90;;;;;;;2.25;40.64;101664.44;5105518;28;20040;-73
2023/02/09 10:22:44;;;;;;;20.23;9.38;;;;;;;2.53;39.78;101655.69;5096341;28;20425;-73
2023/02/09 10:25:51;;;;;;;29.15;14.68;;;;;;;2.28;39.37;101663.97;5096575;28;20032;-75
2023/02/09 10:28:19;;;;;;;19.52;10.25;;;;;;;0.95;41.10;101661.78;5062965;28;20047;-71
2023/02/09 10:30:46;;;;;;;17.52;9.80;;;;;;;1.03;39.85;101650.53;5103677;28;20039;-74
2023/02/09 10:33:14;;;;;;;19.88;10.57;;;;;;;1.07;39.77;101656.41;5085489;28;20051;-75
2023/02/09 10:35:50;;;;;;;16.80;9.63;;;;;;;1.12;39.78;101646.44;5085170;28;20028;-74
2023/02/09 10:38:18;;;;;;;14.60;9.35;;;;;;;1.61;39.50;101653.44;5085310;28;20024;-73
2023/02/09 10:40:46;;;;;;;32.63;14.40;;;;;;;1.83;39.81;101642.88;5084337;28;20032;-70
2023/02/09 10:43:26;;;;;;;17.98;9.63;;;;;;;1.99;39.42;101648.91;5088787;28;20486;-75
2023/02/09 10:45:58;;;;;;;15.65;10.07;;;;;;;2.23;38.46;101642.59;5083386;28;20016;-75
2023/02/09 10:48:25;;;;;;;16.17;9.43;;;;;;;2.31;38.38;101640.59;5082345;28;20093;-75
2023/02/09 10:50:53;;;;;;;51.88;21.48;;;;;;;2.62;38.45;101636.06;5089353;28;20103;-76
2023/02/09 10:53:35;;;;;;;24.30;11.68;;;;;;;2.29;38.41;101638.03;5088407;28;20038;-76
2023/02/09 10:56:22;;;;;;;66.72;24.00;;;;;;;2.84;38.13;101632.84;5087629;28;20050;-76
2023/02/09 10:59:18;;;;;;;22.38;11.68;;;;;;;2.25;38.98;101625.75;5078176;28;20560;-76
2023/02/09 11:01:58;;;;;;;19.70;8.85;;;;;;;2.75;38.75;101624.00;5080042;28;20383;-76
2023/02/09 11:04:28;;;;;;;19.73;9.50;;;;;;;2.63;38.64;101638.56;5089831;28;20043;-76
2023/02/09 11:06:53;;;;;;;;;;;;;;;2.53;38.42;101633.56;5085921;28;20166;-75
2023/02/09 11:09:25;;;;;;;25.48;11.65;;;;;;;2.57;38.51;101627.59;5075965;28;20376;-76
2023/02/09 11:11:51;;;;;;;21.45;9.70;;;;;;;2.76;38.37;101621.00;5089476;28;20070;-76
2023/02/09 11:14:18;;;;;;;19.20;10.05;;;;;;;2.21;37.70;101617.09;5089113;28;20059;-77
2023/02/09 11:17:35;;;;;;;14.50;8.20;;;;;;;2.60;37.79;101616.09;5087966;28;20170;-79
2023/02/09 11:20:19;;;;;;;18.85;9.50;;;;;;;2.48;37.80;101616.00;5062890;28;20640;-76
2023/02/09 11:23:06;;;;;;;29.25;13.27;;;;;;;3.06;36.41;101611.09;5087926;28;20086;-76